Time;durP1;ratioP1;P1;durP2;ratioP2;P2;SDS_P1;SDS_P2;PMS_P1;PMS_P2;Temp;Humidity;BMP_temperature;BMP_pressure;BME280_temperature;BME280_humidity;BME280_pressure;Samples;Min_cycle;Max_cycle;Signal;HPM_P1;HPM_P2
2022/02/06 00:02:28;;;;;;;;;;;;;;;18.37;62.61;101472.00;5024295;28;1874;-39
2022/02/06 00:04:55;;;;;;;;;;;;;;;18.38;62.06;101471.88;5023469;28;1863;-39
2022/02/06 00:07:23;;;;;;;;;;;;;;;18.29;62.05;101476.06;5027006;28;1705;-39
2022/02/06 00:09:49;;;;;;;;;;;;;;;18.33;61.97;101473.19;5026764;28;1712;-39
2022/02/06 00:12:16;;;;;;;;;;;;;;;18.37;61.74;101480.03;5024320;28;1803;-40
2022/02/06 00:14:42;;;;;;;;;;;;;;;18.33;61.68;101486.56;5024469;28;1907;-39
2022/02/06 00:17:09;;;;;;;;;;;;;;;18.28;62.35;101479.75;5022870;28;1907;-39
2022/02/06 00:19:37;;;;;;;;;;;;;;;18.28;61.95;101485.09;5028885;28;1767;-39
2022/02/06 00:22:07;;;;;;;;;;;;;;;18.31;61.68;101499.22;5022199;28;1502;-40
2022/02/06 00:24:41;;;;;;;;;;;;;;;18.28;62.19;101502.97;5021872;28;1835;-38
2022/02/06 00:27:12;;;;;;;;;;;;;;;18.27;61.93;101509.28;5026408;28;1068;-38
2022/02/06 00:29:53;;;;;;;;;;;;;;;18.23;61.95;101495.28;5026599;28;1011;-39
2022/02/06 00:32:33;;;;;;;;;;;;;;;18.25;61.95;101504.03;5021510;28;1510;-39
2022/02/06 00:38:25;;;;;;;;;;;;;;;18.25;61.69;101505.88;4983914;28;1977;-39
2022/02/06 00:41:12;;;;;;;;;;;;;;;18.22;62.00;101506.97;5023012;28;2431;-39
2022/02/06 00:43:38;;;;;;;;;;;;;;;18.21;61.62;101510.59;5028094;28;1955;-39
2022/02/06 00:46:07;;;;;;;;;;;;;;;18.24;61.36;101513.06;5025682;28;1504;-38
2022/02/06 00:48:37;;;;;;;;;;;;;;;18.17;61.73;101503.75;5024343;28;1686;-39
2022/02/06 00:51:09;;;;;;;;;;;;;;;18.15;61.68;101516.41;5017257;28;1791;-39
2022/02/06 00:53:35;;;;;;;;;;;;;;;18.15;61.80;101524.44;5025852;28;1668;-39
2022/02/06 00:56:03;;;;;;;;;;;;;;;18.16;61.88;101534.16;5023171;28;1142;-39
2022/02/06 00:58:30;;;;;;;;;;;;;;;18.19;61.74;101525.91;5019065;28;1910;-39
2022/02/06 01:00:56;;;;;;;;;;;;;;;18.23;61.57;101539.94;5023646;28;1768;-39
2022/02/06 01:03:22;;;;;;;;;;;;;;;18.22;61.50;101540.88;5029485;28;1807;-39
2022/02/06 01:05:49;;;;;;;;;;;;;;;18.22;61.47;101532.84;5024896;28;1904;-39
2022/02/06 01:08:15;;;;;;;;;;;;;;;18.33;61.33;101537.44;5024538;28;1492;-39
2022/02/06 01:10:42;;;;;;;;;;;;;;;18.32;61.27;101549.97;5022957;28;1143;-39
2022/02/06 01:13:19;;;;;;;;;;;;;;;18.46;60.72;101551.63;5029113;28;1767;-39
2022/02/06 01:15:51;;;;;;;;;;;;;;;18.52;60.25;101543.13;5022773;28;1656;-39
2022/02/06 01:18:24;;;;;;;;;;;;;;;18.61;59.65;101545.16;5021794;28;1910;-39
2022/02/06 01:20:58;;;;;;;;;;;;;;;18.62;60.15;101540.63;5023017;28;1925;-39
2022/02/06 01:23:28;;;;;;;;;;;;;;;18.69;59.74;101536.53;5022616;28;1035;-40
2022/02/06 01:25:59;;;;;;;;;;;;;;;18.62;59.69;101530.78;5021591;28;1539;-39
2022/02/06 01:28:33;;;;;;;;;;;;;;;18.61;59.92;101531.75;5027210;28;1744;-39
2022/02/06 01:31:07;;;;;;;;;;;;;;;18.60;60.14;101547.94;5023349;28;1840;-39
2022/02/06 01:33:38;;;;;;;;;;;;;;;18.49;60.17;101541.53;5023602;28;1721;-39
2022/02/06 01:36:11;;;;;;;;;;;;;;;18.47;60.32;101537.28;5022099;28;1402;-39
2022/02/06 01:38:58;;;;;;;;;;;;;;;18.52;60.04;101528.91;5021752;28;1923;-39
2022/02/06 01:41:25;;;;;;;;;;;;;;;18.56;59.43;101533.94;5020045;28;2031;-39
2022/02/06 01:43:58;;;;;;;;;;;;;;;18.60;59.87;101523.81;5020779;28;1964;-39
2022/02/06 01:46:38;;;;;;;;;;;;;;;18.58;59.60;101523.97;5025749;28;1620;-39
2022/02/06 02:03:01;;;;;;;;;;;;;;;18.33;60.04;101548.16;5022507;28;1532;-40
2022/02/06 02:08:32;;;;;;;;;;;;;;;18.30;60.12;101549.22;5018348;28;2373;-39
2022/02/06 02:14:02;;;;;;;;;;;;;;;18.39;59.54;101555.75;5020131;28;2429;-39
2022/02/06 02:19:54;;;;;;;;;;;;;;;18.39;60.07;101551.22;5025737;28;1981;-38
2022/02/06 02:25:34;;;;;;;;;;;;;;;18.35;59.69;101559.63;5023194;28;1518;-40
2022/02/06 02:28:24;;;;;;;;;;;;;;;18.30;59.99;101562.59;5028362;28;1440;-39
2022/02/06 02:31:15;;;;;;;;;;;;;;;18.28;59.64;101565.41;5020432;28;1754;-39
2022/02/06 02:45:09;;;;;;;;;;;;;;;18.36;59.29;101588.94;5024083;28;1611;-39
2022/02/06 02:47:38;;;;;;;;;;;;;;;18.38;59.58;101586.16;5024873;28;1674;-40
2022/02/06 02:50:11;;;;;;;;;;;;;;;18.29;59.51;101566.25;5022054;28;1063;-39
2022/02/06 02:52:54;;;;;;;;;;;;;;;18.32;59.10;101581.25;5021058;28;1771;-38
2022/02/06 02:55:36;;;;;;;;;;;;;;;18.30;59.38;101567.97;5026209;28;1062;-39
2022/02/06 02:58:18;;;;;;;;;;;;;;;18.28;59.30;101577.91;5019813;28;1913;-39
2022/02/06 03:03:24;;;;;;;;;;;;;;;18.26;59.59;101594.13;4851162;26;2044;-39
2022/02/06 03:05:54;;;;;;;;;;;;;;;18.15;59.51;101586.00;4973186;28;2055;-39
2022/02/06 03:08:22;;;;;;;;;;;;;;;18.16;59.56;101595.72;4968532;28;1047;-39
2022/02/06 03:10:55;;;;;;;;;;;;;;;18.18;59.76;101600.97;4965892;28;1717;-39
2022/02/06 03:13:34;;;;;;;;;;;;;;;18.21;59.40;101601.63;4974580;28;1624;-40
2022/02/06 03:16:06;;;;;;;;;;;;;;;18.19;59.41;101606.22;4976932;28;1632;-39
2022/02/06 03:18:42;;;;;;;;;;;;;;;18.21;59.30;101609.66;4971776;28;1903;-39
2022/02/06 03:21:18;;;;;;;;;;;;;;;18.27;59.51;101609.19;4958215;28;1936;-39
2022/02/06 03:23:50;;;;;;;;;;;;;;;18.31;59.16;101609.00;4975254;28;1792;-40
2022/02/06 03:26:22;;;;;;;;;;;;;;;18.26;58.95;101604.84;4977008;28;1053;-39
2022/02/06 03:28:50;;;;;;;;;;;;;;;18.26;59.03;101622.69;4975664;28;1866;-39
2022/02/06 03:31:18;;;;;;;;;;;;;;;18.24;59.02;101606.75;4965030;28;1928;-39
2022/02/06 03:33:47;;;;;;;;;;;;;;;18.25;59.25;101608.47;4969031;28;1796;-40
2022/02/06 03:36:14;;;;;;;;;;;;;;;18.24;58.91;101609.44;4969477;28;1974;-39
2022/02/06 03:38:43;;;;;;;;;;;;;;;18.23;59.17;101610.41;4970336;28;1977;-39
2022/02/06 03:41:14;;;;;;;;;;;;;;;18.21;59.06;101608.81;4968770;28;1009;-39
2022/02/06 03:43:52;;;;;;;;;;;;;;;18.20;58.90;101607.91;4971442;28;1591;-39
2022/02/06 03:46:25;;;;;;;;;;;;;;;18.19;58.80;101608.06;4970596;28;1616;-39
2022/02/06 03:49:02;;;;;;;;;;;;;;;18.17;59.11;101616.19;4964754;28;1604;-39
2022/02/06 03:51:32;;;;;;;;;;;;;;;18.14;59.08;101611.03;4964055;28;1626;-39
2022/02/06 03:53:58;;;;;;;;;;;;;;;18.14;59.19;101619.06;4968314;28;1734;-39
2022/02/06 03:56:28;;;;;;;;;;;;;;;18.14;58.97;101618.22;4969351;28;1083;-39
2022/02/06 03:59:01;;;;;;;;;;;;;;;18.16;58.97;101609.09;4968194;28;1981;-39
2022/02/06 04:01:28;;;;;;;;;;;;;;;18.21;59.00;101614.16;4966867;28;1756;-39
2022/02/06 04:03:55;;;;;;;;;;;;;;;18.20;58.86;101615.09;4965222;28;1435;-39
2022/02/06 04:06:26;;;;;;;;;;;;;;;18.17;58.88;101621.53;4967197;28;1618;-39
2022/02/06 04:08:57;;;;;;;;;;;;;;;18.16;59.13;101635.88;4959076;28;1372;-39
2022/02/06 04:11:34;;;;;;;;;;;;;;;18.12;59.02;101629.03;4970085;28;1080;-39
2022/02/06 04:14:09;;;;;;;;;;;;;;;18.09;59.30;101627.44;4959343;28;1902;-39
2022/02/06 04:16:42;;;;;;;;;;;;;;;18.06;59.13;101643.72;4966920;28;1654;-39
2022/02/06 04:19:19;;;;;;;;;;;;;;;18.02;59.10;101630.66;4972199;28;1903;-39
2022/02/06 04:21:46;;;;;;;;;;;;;;;18.04;59.26;101640.28;4961289;28;1662;-39
2022/02/06 04:24:13;;;;;;;;;;;;;;;18.13;58.71;101646.81;4968097;28;1852;-39
2022/02/06 04:26:43;;;;;;;;;;;;;;;18.15;58.71;101636.84;4967526;28;1084;-39
2022/02/06 04:29:15;;;;;;;;;;;;;;;18.11;58.90;101632.69;4969622;28;1581;-39
2022/02/06 04:31:45;;;;;;;;;;;;;;;18.11;58.88;101642.53;4965858;28;1282;-40
2022/02/06 04:34:21;;;;;;;;;;;;;;;18.09;58.96;101656.03;4969097;28;1329;-39
2022/02/06 04:37:01;;;;;;;;;;;;;;;18.07;58.92;101644.56;4966241;28;1417;-40
2022/02/06 04:39:56;;;;;;;;;;;;;;;18.08;58.79;101651.63;4964959;28;1907;-40
2022/02/06 04:42:35;;;;;;;;;;;;;;;18.21;58.55;101648.97;4957544;28;1683;-39
2022/02/06 05:15:41;;;;;;;;;;;;;;;18.66;56.34;101666.22;4961368;28;1976;-39
2022/02/06 05:21:25;;;;;;;;;;;;;;;19.50;54.36;101673.47;4966222;28;2199;-39
2022/02/06 05:27:04;;;;;;;;;;;;;;;19.81;54.28;101659.44;4946921;28;1442;-39
2022/02/06 05:29:45;;;;;;;;;;;;;;;19.87;54.89;101668.88;4969307;28;1976;-39
2022/02/06 05:35:07;;;;;;;;;;;;;;;19.83;53.81;101676.28;4968150;28;2341;-41
2022/02/06 05:37:45;;;;;;;;;;;;;;;19.79;53.93;101672.13;4963946;28;1835;-40
2022/02/06 05:40:12;;;;;;;;;;;;;;;19.80;55.01;101684.59;4960049;28;1914;-39
2022/02/06 05:42:42;;;;;;;;;;;;;;;19.78;54.63;101674.97;4960955;28;1957;-39
2022/02/06 05:45:22;;;;;;;;;;;;;;;19.71;54.68;101666.50;4967886;28;1953;-39
2022/02/06 05:47:50;;;;;;;;;;;;;;;19.68;55.17;101683.69;4958791;28;1829;-39
2022/02/06 05:50:19;;;;;;;;;;;;;;;19.66;54.78;101687.47;4965934;28;2563;-39
2022/02/06 05:52:52;;;;;;;;;;;;;;;19.57;55.32;101678.28;4961901;28;1966;-39
2022/02/06 05:55:22;;;;;;;;;;;;;;;19.51;55.23;101673.38;4962967;28;1459;-39
2022/02/06 05:57:49;;;;;;;;;;;;;;;19.44;55.26;101678.38;4958622;28;1547;-39
2022/02/06 06:00:16;;;;;;;;;;;;;;;19.39;54.40;101672.47;4961346;28;1903;-39
2022/02/06 06:02:42;;;;;;;;;;;;;;;19.33;54.83;101675.63;4973114;28;2068;-39
2022/02/06 06:05:09;;;;;;;;;;;;;;;19.32;55.42;101684.66;4964042;28;1115;-39
2022/02/06 06:07:45;;;;;;;;;;;;;;;19.28;54.80;101677.81;4964416;28;1824;-39
2022/02/06 06:10:18;;;;;;;;;;;;;;;19.28;55.24;101688.53;4961077;28;1942;-40
2022/02/06 06:12:47;;;;;;;;;;;;;;;19.25;55.79;101683.41;4973236;28;1847;-40
2022/02/06 06:15:13;;;;;;;;;;;;;;;19.24;55.61;101682.53;4964101;28;1803;-39
2022/02/06 06:17:42;;;;;;;;;;;;;;;19.26;55.89;101690.47;4972445;28;1666;-39
2022/02/06 06:20:13;;;;;;;;;;;;;;;19.21;55.01;101682.75;4961317;28;1930;-39
2022/02/06 06:23:04;;;;;;;;;;;;;;;19.24;54.91;101689.75;4967033;28;2053;-39
2022/02/06 06:25:36;;;;;;;;;;;;;;;19.15;55.58;101672.50;4958578;28;1940;-39
2022/02/06 06:28:06;;;;;;;;;;;;;;;19.17;55.73;101694.69;4959277;28;1929;-39
2022/02/06 06:30:45;;;;;;;;;;;;;;;19.14;54.92;101686.88;4970792;28;1337;-40
2022/02/06 06:33:14;;;;;;;;;;;;;;;19.17;55.91;101691.16;4961042;28;1859;-39
2022/02/06 06:35:42;;;;;;;;;;;;;;;19.12;55.66;101687.94;4965395;28;1768;-39
2022/02/06 06:38:09;;;;;;;;;;;;;;;19.12;55.60;101698.69;4978055;28;1482;-41
2022/02/06 06:40:44;;;;;;;;;;;;;;;19.11;55.19;101691.63;4975436;28;1965;-39
2022/02/06 06:43:13;;;;;;;;;;;;;;;19.07;55.67;101689.16;4974425;28;1668;-39
2022/02/06 06:45:43;;;;;;;;;;;;;;;19.11;55.04;101686.25;4966385;28;1643;-39
2022/02/06 06:48:20;;;;;;;;;;;;;;;19.11;56.03;101680.88;4965581;28;1770;-39
2022/02/06 06:50:50;;;;;;;;;;;;;;;19.05;55.68;101693.78;4963951;28;1670;-40
2022/02/06 06:53:16;;;;;;;;;;;;;;;19.16;56.23;101689.44;4968754;28;1610;-39
2022/02/06 06:55:54;;;;;;;;;;;;;;;19.23;55.37;101664.72;4969773;28;1579;-39
2022/02/06 06:58:27;;;;;;;;;;;;;;;19.25;56.28;101683.41;4974910;28;1777;-40
2022/02/06 07:01:08;;;;;;;;;;;;;;;19.40;55.66;101695.66;4969580;28;1969;-39
2022/02/06 07:03:36;;;;;;;;;;;;;;;19.39;56.37;101685.88;4974997;28;1993;-40
2022/02/06 07:06:06;;;;;;;;;;;;;;;19.44;55.39;101682.88;4961520;28;1966;-39
2022/02/06 07:08:37;;;;;;;;;;;;;;;19.40;55.03;101690.28;4966020;28;1471;-39
2022/02/06 07:11:05;;;;;;;;;;;;;;;19.41;54.97;101692.00;4983278;28;1481;-40
2022/02/06 07:13:33;;;;;;;;;;;;;;;19.46;55.39;101683.63;4983365;28;1948;-40
2022/02/06 07:16:10;;;;;;;;;;;;;;;19.40;55.19;101674.19;4972242;28;1735;-39
2022/02/06 07:18:38;;;;;;;;;;;;;;;19.48;55.50;101687.03;4975136;28;1481;-40
2022/02/06 07:21:05;;;;;;;;;;;;;;;19.53;55.85;101705.47;4974530;28;1973;-40
2022/02/06 07:23:35;;;;;;;;;;;;;;;19.52;57.24;101693.00;4974092;28;1160;-40
2022/02/06 07:26:07;;;;;;;;;;;;;;;19.62;56.58;101680.63;4974949;28;1648;-40
2022/02/06 07:28:47;;;;;;;;;;;;;;;19.66;57.11;101687.47;4971064;28;1750;-40
2022/02/06 07:31:17;;;;;;;;;;;;;;;19.61;57.99;101684.25;4975632;28;1428;-40
2022/02/06 07:33:44;;;;;;;;;;;;;;;19.58;58.30;101669.25;4973612;28;1553;-40
2022/02/06 07:36:13;;;;;;;;;;;;;;;19.62;57.58;101670.75;4974046;28;1569;-39
2022/02/06 07:38:43;;;;;;;;;;;;;;;19.67;57.97;101673.91;4975705;28;1546;-40
2022/02/06 07:41:22;;;;;;;;;;;;;;;19.64;58.28;101668.78;4976091;28;1906;-39
2022/02/06 07:44:00;;;;;;;;;;;;;;;19.64;57.48;101678.69;4975163;28;1592;-40
2022/02/06 07:46:41;;;;;;;;;;;;;;;19.63;57.87;101682.31;4974570;28;1629;-40
2022/02/06 07:49:10;;;;;;;;;;;;;;;19.62;57.71;101673.41;4974950;28;1414;-39
2022/02/06 07:51:36;;;;;;;;;;;;;;;19.65;57.42;101677.69;4975359;28;1416;-39
2022/02/06 07:54:03;;;;;;;;;;;;;;;19.67;57.15;101673.91;4973536;28;1747;-40
2022/02/06 07:56:35;;;;;;;;;;;;;;;19.71;57.49;101692.47;4975502;28;1857;-40
2022/02/06 07:59:03;;;;;;;;;;;;;;;19.76;58.53;101683.13;4973683;28;1944;-40
2022/02/06 08:01:33;;;;;;;;;;;;;;;19.83;57.60;101670.06;4971350;28;1632;-38
2022/02/06 08:04:00;;;;;;;;;;;;;;;19.85;58.01;101668.13;4974802;28;1615;-40
2022/02/06 08:06:28;;;;;;;;;;;;;;;19.81;57.38;101678.25;4975394;28;1634;-40
2022/02/06 08:17:03;;;;;;;;;;;;;;;19.96;57.28;101672.69;4970618;28;2279;-39
2022/02/06 08:19:29;;;;;;;;;;;;;;;19.91;57.25;101696.34;4973610;28;1902;-40
2022/02/06 08:21:59;;;;;;;;;;;;;;;20.00;58.01;101674.16;4971871;28;1416;-40
2022/02/06 08:24:26;;;;;;;;;;;;;;;19.92;58.07;101690.00;4969749;28;1609;-39
2022/02/06 08:26:55;;;;;;;;;;;;;;;19.92;58.22;101674.75;4974830;28;1615;-39
2022/02/06 08:29:25;;;;;;;;;;;;;;;19.92;58.17;101677.44;4974025;28;1745;-40
2022/02/06 08:31:54;;;;;;;;;;;;;;;20.01;57.22;101702.69;4971899;28;1597;-40
2022/02/06 08:34:21;;;;;;;;;;;;;;;20.00;58.20;101690.25;4974171;28;1726;-40
2022/02/06 08:36:49;;;;;;;;;;;;;;;19.96;57.86;101694.16;4974411;28;1641;-40
2022/02/06 08:39:19;;;;;;;;;;;;;;;19.93;57.63;101684.50;4968379;28;1906;-40
2022/02/06 08:41:48;;;;;;;;;;;;;;;20.03;58.18;101682.81;4973638;28;1628;-41
2022/02/06 08:44:15;;;;;;;;;;;;;;;20.13;58.09;101680.25;4974073;28;1478;-37
2022/02/06 08:46:45;;;;;;;;;;;;;;;19.82;57.74;101704.13;4952456;28;10985;-38
2022/02/06 08:49:14;;;;;;;;;;;;;;;19.53;54.38;101671.44;4975071;28;1972;-37
2022/02/06 08:51:43;;;;;;;;;;;;;;;19.92;53.00;101679.25;4971809;28;1763;-38
2022/02/06 08:54:10;;;;;;;;;;;;;;;19.79;49.22;101676.66;4975064;28;1907;-38
2022/02/06 08:56:39;;;;;;;;;;;;;;;19.65;46.63;101675.84;4983954;28;1677;-37
2022/02/06 08:59:06;;;;;;;;;;;;;;;19.60;46.38;101674.53;4971850;28;1500;-37
2022/02/06 09:01:35;;;;;;;;;;;;;;;19.41;44.82;101673.22;4981149;28;1903;-37
2022/02/06 09:04:08;;;;;;;;;;;;;;;19.33;43.67;101681.00;4982722;28;2040;-37
2022/02/06 09:06:47;;;;;;;;;;;;;;;19.04;43.07;101677.81;4972534;28;1610;-37
2022/02/06 09:09:17;;;;;;;;;;;;;;;18.95;42.27;101671.28;4979453;28;1356;-37
2022/02/06 09:11:46;;;;;;;;;;;;;;;18.73;41.35;101679.19;4980831;28;1700;-37
2022/02/06 09:14:17;;;;;;;;;;;;;;;18.78;42.16;101682.34;4965609;28;1590;-37
2022/02/06 09:16:44;;;;;;;;;;;;;;;18.60;40.62;101680.06;4972661;28;1994;-37
2022/02/06 09:19:17;;;;;;;;;;;;;;;18.58;40.83;101689.16;4972466;28;1422;-37
2022/02/06 09:21:47;;;;;;;;;;;;;;;18.62;40.39;101682.63;4966979;28;1977;-37
2022/02/06 09:24:15;;;;;;;;;;;;;;;18.48;41.29;101675.56;4971638;28;1739;-37
2022/02/06 09:26:43;;;;;;;;;;;;;;;18.36;40.00;101674.63;4972043;28;1911;-37
2022/02/06 09:29:13;;;;;;;;;;;;;;;18.20;39.44;101684.72;4972954;28;1971;-37
2022/02/06 09:31:41;;;;;;;;;;;;;;;18.43;39.74;101683.94;4966872;28;1573;-39
2022/02/06 09:36:38;;;;;;;;;;;;;;;18.21;38.31;101671.22;4961037;28;1829;-37
2022/02/06 09:39:16;;;;;;;;;;;;;;;18.20;39.23;101666.81;4964726;28;1771;-37
2022/02/06 09:41:46;;;;;;;;;;;;;;;18.33;39.57;101664.16;4968990;28;1973;-37
2022/02/06 09:44:14;;;;;;;;;;;;;;;18.18;39.19;101665.22;4966159;28;2021;-38
2022/02/06 09:46:57;;;;;;;;;;;;;;;18.01;36.91;101653.88;4967998;28;1614;-37
2022/02/06 09:49:31;;;;;;;;;;;;;;;18.32;37.66;101651.69;4971954;28;1836;-38
2022/02/06 09:52:11;;;;;;;;;;;;;;;18.64;37.78;101635.13;4972941;28;1517;-38
2022/02/06 09:54:38;;;;;;;;;;;;;;;18.91;38.75;101632.28;4974083;28;1919;-37
2022/02/06 09:57:11;;;;;;;;;;;;;;;19.13;39.05;101638.75;4968452;28;1742;-38
2022/02/06 09:59:50;;;;;;;;;;;;;;;19.21;39.74;101639.84;4972266;28;1729;-38
2022/02/06 10:02:20;;;;;;;;;;;;;;;19.14;41.68;101624.34;4964720;28;1861;-38
2022/02/06 10:05:03;;;;;;;;;;;;;;;19.37;42.24;101628.81;4965651;28;2076;-37
2022/02/06 10:07:41;;;;;;;;;;;;;;;19.32;42.91;101622.97;4973508;28;1580;-37
2022/02/06 10:10:10;;;;;;;;;;;;;;;19.33;43.72;101627.34;4970862;28;1971;-37
2022/02/06 10:12:40;;;;;;;;;;;;;;;19.37;43.54;101618.09;4973500;28;1798;-36
2022/02/06 10:15:10;;;;;;;;;;;;;;;19.36;44.72;101611.03;4969756;28;1942;-38
2022/02/06 10:17:40;;;;;;;;;;;;;;;19.41;44.55;101599.94;4963578;28;1761;-37
2022/02/06 10:20:15;;;;;;;;;;;;;;;19.39;44.98;101594.69;4971844;28;1972;-37
2022/02/06 10:23:01;;;;;;;;;;;;;;;19.41;44.62;101587.38;4965002;28;2180;-37
2022/02/06 10:25:31;;;;;;;;;;;;;;;19.31;44.48;101596.25;4974088;28;1955;-37
2022/02/06 10:28:01;;;;;;;;;;;;;;;19.27;46.83;101591.13;4962259;28;1701;-37
2022/02/06 10:30:40;;;;;;;;;;;;;;;19.32;46.55;101581.88;4968731;28;1645;-37
2022/02/06 10:33:19;;;;;;;;;;;;;;;19.36;47.41;101588.69;4981938;28;1321;-37
2022/02/06 10:35:48;;;;;;;;;;;;;;;19.42;48.36;101574.84;4979967;28;1630;-38
2022/02/06 10:38:39;;;;;;;;;;;;;;;19.61;47.76;101575.09;4979120;28;1811;-37
2022/02/06 10:41:08;;;;;;;;;;;;;;;19.62;48.93;101578.66;4978367;28;1906;-37
2022/02/06 10:43:38;;;;;;;;;;;;;;;19.56;49.49;101576.47;4978084;28;1681;-38
2022/02/06 10:46:09;;;;;;;;;;;;;;;19.60;49.36;101575.25;4975473;28;1290;-38
2022/02/06 10:48:47;;;;;;;;;;;;;;;19.50;50.14;101553.66;4979119;28;1506;-38
2022/02/06 10:51:30;;;;;;;;;;;;;;;19.47;50.99;101535.09;4975714;28;1576;-37
2022/02/06 10:54:04;;;;;;;;;;;;;;;19.45;51.54;101545.09;4979594;28;1472;-37
2022/02/06 10:56:31;;;;;;;;;;;;;;;19.57;51.15;101540.59;4989643;28;1531;-38
2022/02/06 10:58:59;;;;;;;;;;;;;;;19.68;50.57;101551.34;4984714;28;2150;-38
2022/02/06 11:01:26;;;;;;;;;;;;;;;19.65;51.75;101538.16;4977724;28;1977;-37
2022/02/06 11:04:13;;;;;;;;;;;;;;;19.50;52.19;101523.25;4980894;28;1978;-38
2022/02/06 11:06:46;;;;;;;;;;;;;;;19.45;52.67;101540.56;4976260;28;1584;-38
2022/02/06 11:09:27;;;;;;;;;;;;;;;19.43;52.83;101531.78;4971876;28;1920;-37
2022/02/06 11:11:58;;;;;;;;;;;;;;;19.40;53.34;101534.72;4973795;28;1535;-38
2022/02/06 11:14:25;;;;;;;;;;;;;;;19.38;53.06;101536.69;4963293;28;1913;-37
2022/02/06 11:16:55;;;;;;;;;;;;;;;19.38;52.80;101543.88;4958767;28;1710;-37
2022/02/06 11:19:25;;;;;;;;;;;;;;;19.44;53.52;101517.41;4974934;28;1520;-38
2022/02/06 11:22:06;;;;;;;;;;;;;;;19.51;54.29;101527.66;4978289;28;1911;-39
2022/02/06 11:24:37;;;;;;;;;;;;;;;19.56;53.80;101499.50;4974276;28;1647;-38
2022/02/06 11:27:05;;;;;;;;;;;;;;;19.56;53.16;101512.06;4976023;28;1508;-38
2022/02/06 11:29:32;;;;;;;;;;;;;;;19.50;53.84;101512.53;4973010;28;1603;-38
2022/02/06 11:32:06;;;;;;;;;;;;;;;19.38;51.32;101496.44;4973190;28;1880;-38
2022/02/06 11:34:41;;;;;;;;;;;;;;;19.26;53.47;101508.97;4973070;28;1522;-34
2022/02/06 11:45:44;;;;;;;;;;;;;;;19.38;53.19;101490.25;4976148;28;1785;-35
2022/02/06 11:48:23;;;;;;;;;;;;;;;19.44;53.48;101482.56;4976154;28;1297;-35
2022/02/06 11:50:52;;;;;;;;;;;;;;;19.68;52.08;101466.31;4972337;28;1456;-35
2022/02/06 11:53:38;;;;;;;;;;;;;;;19.84;52.61;101463.28;4976281;28;1499;-34
2022/02/06 11:56:22;;;;;;;;;;;;;;;19.99;52.52;101447.75;4974342;28;1266;-35
2022/02/06 11:59:12;;;;;;;;;;;;;;;20.07;52.80;101455.19;4972951;28;1920;-35
2022/02/06 12:01:42;;;;;;;;;;;;;;;20.25;51.83;101456.38;4969771;28;1979;-34
2022/02/06 12:04:19;;;;;;;;;;;;;;;20.35;51.21;101456.47;4972469;28;1713;-34
2022/02/06 12:06:59;;;;;;;;;;;;;;;20.60;51.68;101452.59;4976516;28;1437;-35
2022/02/06 12:09:37;;;;;;;;;;;;;;;20.64;51.59;101453.19;4970430;28;1577;-35
2022/02/06 12:12:13;;;;;;;;;;;;;;;20.75;50.49;101460.34;4976144;28;1175;-34
2022/02/06 12:14:52;;;;;;;;;;;;;;;20.87;50.27;101453.94;4970894;28;1183;-35
2022/02/06 12:17:26;;;;;;;;;;;;;;;20.44;52.09;101457.53;4974301;28;1079;-34
2022/02/06 12:20:12;;;;;;;;;;;;;;;20.09;52.34;101466.66;4974056;28;1966;-35
2022/02/06 12:22:42;;;;;;;;;;;;;;;19.81;52.31;101443.91;4968931;28;2004;-34
2022/02/06 12:25:19;;;;;;;;;;;;;;;19.71;53.93;101429.50;4974030;28;1609;-34
2022/02/06 12:27:47;;;;;;;;;;;;;;;19.63;52.07;101432.78;4972380;28;1433;-35
2022/02/06 12:30:37;;;;;;;;;;;;;;;19.56;52.70;101439.63;4974530;28;1728;-35
2022/02/06 12:33:24;;;;;;;;;;;;;;;19.53;52.98;101440.72;4968227;28;1357;-35
2022/02/06 12:38:34;;;;;;;;;;;;;;;19.40;52.55;101429.28;4971607;28;1843;-34
2022/02/06 12:41:18;;;;;;;;;;;;;;;19.37;53.88;101418.78;4965213;28;1994;-34
2022/02/06 12:43:52;;;;;;;;;;;;;;;19.34;53.15;101419.88;4957602;28;1850;-35
2022/02/06 12:46:26;;;;;;;;;;;;;;;19.31;53.21;101430.84;4963623;28;1309;-34
2022/02/06 12:49:04;;;;;;;;;;;;;;;19.28;53.00;101415.00;4967544;28;1780;-35
2022/02/06 12:51:36;;;;;;;;;;;;;;;19.23;53.48;101418.03;4967386;28;1701;-34
2022/02/06 12:54:21;;;;;;;;;;;;;;;19.24;53.38;101421.59;4961837;28;1293;-34
2022/02/06 12:56:49;;;;;;;;;;;;;;;19.22;53.42;101423.53;4962683;28;1138;-34
2022/02/06 12:59:21;;;;;;;;;;;;;;;19.30;53.88;101415.75;4969085;28;1770;-35
2022/02/06 13:01:54;;;;;;;;;;;;;;;19.32;53.70;101424.53;4967443;28;1910;-35
2022/02/06 13:04:22;;;;;;;;;;;;;;;19.38;54.20;101409.78;4974142;28;1709;-34
2022/02/06 13:07:06;;;;;;;;;;;;;;;19.29;53.93;101422.06;4970562;28;1729;-35
2022/02/06 13:09:38;;;;;;;;;;;;;;;19.70;53.71;101401.81;4971719;28;1899;-34
2022/02/06 13:12:14;;;;;;;;;;;;;;;19.73;50.81;101403.41;4958677;28;1159;-35
2022/02/06 13:15:07;;;;;;;;;;;;;;;19.52;51.71;101401.47;4968529;28;1051;-34
2022/02/06 13:18:19;;;;;;;;;;;;;;;19.34;52.63;101398.44;4973000;28;1622;-35
2022/02/06 13:23:50;;;;;;;;;;;;;;;19.20;53.19;101399.53;4972019;28;1482;-34
2022/02/06 13:26:24;;;;;;;;;;;;;;;19.07;54.22;101393.41;4966901;28;1099;-34
2022/02/06 13:29:07;;;;;;;;;;;;;;;19.03;54.36;101390.13;4972895;28;1773;-34
2022/02/06 13:31:49;;;;;;;;;;;;;;;19.03;54.00;101394.63;4964359;28;1842;-34
2022/02/06 13:34:38;;;;;;;;;;;;;;;18.96;54.41;101377.31;4958886;28;1761;-34
2022/02/06 13:37:11;;;;;;;;;;;;;;;18.91;54.61;101364.28;4963573;28;1550;-34
2022/02/06 13:39:50;;;;;;;;;;;;;;;18.89;54.45;101368.91;4966580;28;1734;-34
2022/02/06 13:42:28;;;;;;;;;;;;;;;18.86;53.76;101358.41;4954501;28;1907;-34
2022/02/06 13:45:13;;;;;;;;;;;;;;;18.83;54.44;101356.00;4966807;28;1466;-38
2022/02/06 13:47:54;;;;;;;;;;;;;;;18.79;54.66;101350.03;4972937;28;1430;-34
2022/02/06 13:50:36;;;;;;;;;;;;;;;18.68;53.37;101358.88;4962592;28;1459;-35
2022/02/06 13:53:07;;;;;;;;;;;;;;;18.81;54.41;101347.22;4972922;28;1677;-34
2022/02/06 13:55:56;;;;;;;;;;;;;;;18.92;54.46;101320.44;4965414;28;1025;-33
2022/02/06 13:58:34;;;;;;;;;;;;;;;18.90;55.25;101326.88;4970077;28;1316;-33
2022/02/06 14:01:21;;;;;;;;;;;;;;;18.93;55.46;101324.81;4964190;28;1906;-33
2022/02/06 14:03:49;;;;;;;;;;;;;;;18.91;55.91;101324.09;4966456;28;1937;-33
2022/02/06 14:06:25;;;;;;;;;;;;;;;19.00;56.85;101331.41;4973962;28;1570;-34
2022/02/06 14:09:15;;;;;;;;;;;;;;;18.97;56.85;101320.91;4972726;28;1580;-34
2022/02/06 14:12:02;;;;;;;;;;;;;;;18.89;56.99;101323.34;4958427;28;1577;-34
2022/02/06 14:14:30;;;;;;;;;;;;;;;18.80;57.34;101326.75;4958227;28;1992;-34
2022/02/06 14:16:58;;;;;;;;;;;;;;;18.79;56.99;101317.88;4956815;28;1727;-34
2022/02/06 14:19:35;;;;;;;;;;;;;;;18.68;57.16;101305.28;4963834;28;1547;-35
2022/02/06 14:22:03;;;;;;;;;;;;;;;18.66;57.29;101301.88;4959792;28;1907;-35
2022/02/06 14:24:32;;;;;;;;;;;;;;;18.65;57.61;101297.47;4972732;28;1673;-34
2022/02/06 14:27:06;;;;;;;;;;;;;;;18.72;57.56;101316.63;4974640;28;1055;-34
2022/02/06 14:29:35;;;;;;;;;;;;;;;18.66;57.21;101296.53;4962448;28;1962;-33
2022/02/06 14:32:14;;;;;;;;;;;;;;;18.68;57.52;101304.41;4961271;28;1480;-33
2022/02/06 14:34:57;;;;;;;;;;;;;;;18.64;56.91;101293.13;4965135;28;1974;-33
2022/02/06 14:37:27;;;;;;;;;;;;;;;18.63;57.94;101294.06;4962290;28;1668;-33
2022/02/06 14:40:04;;;;;;;;;;;;;;;18.58;57.68;101290.91;4964383;28;1421;-33
2022/02/06 14:42:35;;;;;;;;;;;;;;;18.59;58.02;101292.59;4973665;28;1977;-34
2022/02/06 14:45:10;;;;;;;;;;;;;;;18.58;57.91;101288.25;4968072;28;1797;-33
2022/02/06 14:47:39;;;;;;;;;;;;;;;18.55;57.81;101282.25;4967963;28;1677;-34
2022/02/06 14:50:13;;;;;;;;;;;;;;;18.56;57.98;101281.28;4968343;28;1004;-33
2022/02/06 14:52:43;;;;;;;;;;;;;;;18.53;57.82;101271.66;4970343;28;1245;-33
2022/02/06 14:55:13;;;;;;;;;;;;;;;18.65;57.50;101276.06;4974849;28;1824;-33
2022/02/06 14:57:43;;;;;;;;;;;;;;;18.71;57.27;101282.75;4973105;28;1964;-33
2022/02/06 15:00:12;;;;;;;;;;;;;;;18.72;56.96;101278.25;4975705;28;1626;-33
2022/02/06 15:02:47;;;;;;;;;;;;;;;18.79;57.03;101279.47;4960514;28;1910;-33
2022/02/06 15:05:16;;;;;;;;;;;;;;;18.86;57.27;101280.72;4969316;28;1663;-35
2022/02/06 15:07:44;;;;;;;;;;;;;;;18.99;56.54;101284.13;4969876;28;1171;-33